Jackson, Ohio
Current Conditions -  °F | °C
As of 8:15 AM on Sunday 23 Nov 2014 (Local Time) from KUNI Reporting Station
Broken Clouds Broken Clouds  
Wind Chill: 48°   Ceiling: 10000
Heat Index: 48°   Visibility: 10mi
Dew Point: 28°   Wind: 3mph
Humidity: 46%   Direction: 180°S
Pressure: 30.06"   Gusts: NA
Location:  39.05°N, 82.64°W
Report Text: KUNI 231315Z AUTO 18003KT 10SM SCT040 SCT060 BKN100 09/M02 A3006 RMK AO2 T00871024
Loading
Personal Weather Stations






























Interactive Weather Map New forecast layout! Learn more

10-Day Weather Forecast

Advertisements
Track Severe Weather on mobile